sensor_id;sensor_type;location;lat;lon;timestamp;temperature;humidity
55711;DHT22;41612;51.994;5.880;2022-10-13T05:24:06;12.60;79.80
55711;DHT22;41612;51.994;5.880;2022-10-13T05:26:34;12.70;79.20
55711;DHT22;41612;51.994;5.880;2022-10-13T05:29:01;12.70;80.30
55711;DHT22;41612;51.994;5.880;2022-10-13T05:31:31;12.70;79.40
55711;DHT22;41612;51.994;5.880;2022-10-13T05:33:58;12.70;77.40
55711;DHT22;41612;51.994;5.880;2022-10-13T05:36:26;12.80;78.30
55711;DHT22;41612;51.994;5.880;2022-10-13T05:38:56;12.80;79.10
55711;DHT22;41612;51.994;5.880;2022-10-13T05:41:23;12.80;77.70
55711;DHT22;41612;51.994;5.880;2022-10-13T05:43:52;12.80;78.10
55711;DHT22;41612;51.994;5.880;2022-10-13T05:46:22;12.80;79.00
55711;DHT22;41612;51.994;5.880;2022-10-13T05:48:48;12.80;79.60
55711;DHT22;41612;51.994;5.880;2022-10-13T05:51:31;12.80;78.20
55711;DHT22;41612;51.994;5.880;2022-10-13T05:54:12;12.80;78.50
55711;DHT22;41612;51.994;5.880;2022-10-13T05:56:46;12.90;78.80
55711;DHT22;41612;51.994;5.880;2022-10-13T05:59:15;12.90;77.40
55711;DHT22;41612;51.994;5.880;2022-10-13T06:01:46;12.90;78.50
55711;DHT22;41612;51.994;5.880;2022-10-13T06:04:20;13.00;78.30
55711;DHT22;41612;51.994;5.880;2022-10-13T06:06:49;13.00;78.90
55711;DHT22;41612;51.994;5.880;2022-10-13T06:09:15;13.00;78.90
55711;DHT22;41612;51.994;5.880;2022-10-13T06:11:42;13.00;78.60
55711;DHT22;41612;51.994;5.880;2022-10-13T06:14:07;13.00;78.10
55711;DHT22;41612;51.994;5.880;2022-10-13T06:16:36;13.00;78.10
55711;DHT22;41612;51.994;5.880;2022-10-13T06:19:11;13.00;77.50
55711;DHT22;41612;51.994;5.880;2022-10-13T06:21:37;13.10;77.00
55711;DHT22;41612;51.994;5.880;2022-10-13T06:24:03;13.20;77.40
55711;DHT22;41612;51.994;5.880;2022-10-13T06:26:29;13.10;78.70
55711;DHT22;41612;51.994;5.880;2022-10-13T06:28:55;13.10;78.40
55711;DHT22;41612;51.994;5.880;2022-10-13T06:31:21;13.10;79.30
55711;DHT22;41612;51.994;5.880;2022-10-13T06:33:47;13.20;79.50
55711;DHT22;41612;51.994;5.880;2022-10-13T06:36:13;13.20;79.30
55711;DHT22;41612;51.994;5.880;2022-10-13T06:38:39;13.20;79.00
55711;DHT22;41612;51.994;5.880;2022-10-13T06:41:05;13.20;79.10
55711;DHT22;41612;51.994;5.880;2022-10-13T06:43:33;13.30;79.30
55711;DHT22;41612;51.994;5.880;2022-10-13T06:46:01;13.20;77.90
55711;DHT22;41612;51.994;5.880;2022-10-13T06:48:27;13.20;77.80
55711;DHT22;41612;51.994;5.880;2022-10-13T06:51:04;13.20;79.20
55711;DHT22;41612;51.994;5.880;2022-10-13T06:53:50;13.20;78.30
55711;DHT22;41612;51.994;5.880;2022-10-13T06:56:22;13.20;78.80
55711;DHT22;41612;51.994;5.880;2022-10-13T06:58:48;13.20;76.90
55711;DHT22;41612;51.994;5.880;2022-10-13T07:01:16;13.30;77.80
55711;DHT22;41612;51.994;5.880;2022-10-13T07:03:42;13.30;78.40
55711;DHT22;41612;51.994;5.880;2022-10-13T07:06:08;13.30;79.20
55711;DHT22;41612;51.994;5.880;2022-10-13T07:08:35;13.30;78.70
55711;DHT22;41612;51.994;5.880;2022-10-13T07:11:08;13.30;79.00
55711;DHT22;41612;51.994;5.880;2022-10-13T07:13:37;13.30;77.90
55711;DHT22;41612;51.994;5.880;2022-10-13T07:16:04;13.30;79.40
55711;DHT22;41612;51.994;5.880;2022-10-13T07:18:32;13.30;79.60
55711;DHT22;41612;51.994;5.880;2022-10-13T07:21:04;13.30;79.60
55711;DHT22;41612;51.994;5.880;2022-10-13T07:23:36;13.30;78.90
55711;DHT22;41612;51.994;5.880;2022-10-13T07:26:16;13.30;80.00
55711;DHT22;41612;51.994;5.880;2022-10-13T07:28:45;13.20;79.10
55711;DHT22;41612;51.994;5.880;2022-10-13T07:31:17;13.20;80.50
55711;DHT22;41612;51.994;5.880;2022-10-13T07:33:44;13.30;80.90
55711;DHT22;41612;51.994;5.880;2022-10-13T07:36:11;13.30;80.90
55711;DHT22;41612;51.994;5.880;2022-10-13T07:38:38;13.30;81.40
55711;DHT22;41612;51.994;5.880;2022-10-13T07:41:05;13.30;79.10
55711;DHT22;41612;51.994;5.880;2022-10-13T07:43:31;13.20;81.60
55711;DHT22;41612;51.994;5.880;2022-10-13T07:45:59;13.30;81.20
55711;DHT22;41612;51.994;5.880;2022-10-13T07:48:26;13.30;80.90
55711;DHT22;41612;51.994;5.880;2022-10-13T07:50:53;13.20;81.00
55711;DHT22;41612;51.994;5.880;2022-10-13T07:53:19;13.30;81.30
55711;DHT22;41612;51.994;5.880;2022-10-13T07:55:45;13.30;81.60
55711;DHT22;41612;51.994;5.880;2022-10-13T07:58:10;13.30;80.40
55711;DHT22;41612;51.994;5.880;2022-10-13T08:00:39;13.40;81.20
55711;DHT22;41612;51.994;5.880;2022-10-13T08:03:04;13.40;81.40
55711;DHT22;41612;51.994;5.880;2022-10-13T08:05:32;13.40;81.10
55711;DHT22;41612;51.994;5.880;2022-10-13T08:08:01;13.40;80.00
55711;DHT22;41612;51.994;5.880;2022-10-13T08:10:27;13.50;79.50
55711;DHT22;41612;51.994;5.880;2022-10-13T08:12:53;13.50;79.40
55711;DHT22;41612;51.994;5.880;2022-10-13T08:15:19;13.60;78.80
55711;DHT22;41612;51.994;5.880;2022-10-13T08:17:47;13.70;80.60
55711;DHT22;41612;51.994;5.880;2022-10-13T08:20:14;13.70;79.80
55711;DHT22;41612;51.994;5.880;2022-10-13T08:22:39;13.80;80.40
55711;DHT22;41612;51.994;5.880;2022-10-13T08:25:05;13.80;79.50
55711;DHT22;41612;51.994;5.880;2022-10-13T08:27:34;13.90;79.70
55711;DHT22;41612;51.994;5.880;2022-10-13T08:30:04;13.90;79.10
55711;DHT22;41612;51.994;5.880;2022-10-13T08:32:31;14.00;77.10
55711;DHT22;41612;51.994;5.880;2022-10-13T08:34:56;14.00;77.40
55711;DHT22;41612;51.994;5.880;2022-10-13T08:37:24;14.10;78.20
55711;DHT22;41612;51.994;5.880;2022-10-13T08:39:49;14.20;78.20
55711;DHT22;41612;51.994;5.880;2022-10-13T08:42:18;14.20;78.60
55711;DHT22;41612;51.994;5.880;2022-10-13T08:44:54;14.20;78.60
55711;DHT22;41612;51.994;5.880;2022-10-13T08:50:13;14.20;78.50
55711;DHT22;41612;51.994;5.880;2022-10-13T08:55:17;14.00;78.40
55711;DHT22;41612;51.994;5.880;2022-10-13T08:57:44;14.10;78.50
55711;DHT22;41612;51.994;5.880;2022-10-13T09:00:12;14.10;77.50
55711;DHT22;41612;51.994;5.880;2022-10-13T09:02:42;14.10;78.50
55711;DHT22;41612;51.994;5.880;2022-10-13T09:05:15;14.00;78.30
55711;DHT22;41612;51.994;5.880;2022-10-13T09:07:50;14.10;78.30
55711;DHT22;41612;51.994;5.880;2022-10-13T09:10:18;14.20;77.10
55711;DHT22;41612;51.994;5.880;2022-10-13T09:12:44;14.20;77.50
55711;DHT22;41612;51.994;5.880;2022-10-13T09:15:10;14.30;77.30
55711;DHT22;41612;51.994;5.880;2022-10-13T09:17:39;14.50;74.70
55711;DHT22;41612;51.994;5.880;2022-10-13T09:20:17;14.70;75.90
55711;DHT22;41612;51.994;5.880;2022-10-13T09:23:16;14.90;74.00
55711;DHT22;41612;51.994;5.880;2022-10-13T09:25:49;15.20;73.80
55711;DHT22;41612;51.994;5.880;2022-10-13T09:28:25;15.40;74.80
55711;DHT22;41612;51.994;5.880;2022-10-13T09:31:12;15.50;74.00
55711;DHT22;41612;51.994;5.880;2022-10-13T09:33:39;15.80;73.90
55711;DHT22;41612;51.994;5.880;2022-10-13T09:36:10;15.90;74.00
55711;DHT22;41612;51.994;5.880;2022-10-13T09:38:37;16.00;73.40
55711;DHT22;41612;51.994;5.880;2022-10-13T09:41:19;16.20;73.60
55711;DHT22;41612;51.994;5.880;2022-10-13T09:49:43;16.10;72.60
55711;DHT22;41612;51.994;5.880;2022-10-13T09:55:40;16.00;72.80
55711;DHT22;41612;51.994;5.880;2022-10-13T09:58:26;16.00;72.80
55711;DHT22;41612;51.994;5.880;2022-10-13T10:00:53;16.00;73.10
55711;DHT22;41612;51.994;5.880;2022-10-13T10:03:30;16.10;72.40
55711;DHT22;41612;51.994;5.880;2022-10-13T10:06:06;16.10;73.20
55711;DHT22;41612;51.994;5.880;2022-10-13T10:11:29;16.20;71.90
55711;DHT22;41612;51.994;5.880;2022-10-13T10:13:59;16.20;73.00
55711;DHT22;41612;51.994;5.880;2022-10-13T10:16:41;16.30;72.40
55711;DHT22;41612;51.994;5.880;2022-10-13T10:19:23;16.30;72.70
55711;DHT22;41612;51.994;5.880;2022-10-13T10:27:25;16.20;72.40
55711;DHT22;41612;51.994;5.880;2022-10-13T10:30:02;16.10;73.00
55711;DHT22;41612;51.994;5.880;2022-10-13T10:32:53;16.10;73.40
55711;DHT22;41612;51.994;5.880;2022-10-13T10:38:28;16.10;72.90
55711;DHT22;41612;51.994;5.880;2022-10-13T10:44:06;16.00;73.20
55711;DHT22;41612;51.994;5.880;2022-10-13T10:46:35;15.90;72.70
55711;DHT22;41612;51.994;5.880;2022-10-13T10:49:19;15.90;73.70
55711;DHT22;41612;51.994;5.880;2022-10-13T10:51:57;16.00;73.40
55711;DHT22;41612;51.994;5.880;2022-10-13T11:00:05;16.10;72.30
55711;DHT22;41612;51.994;5.880;2022-10-13T11:02:55;16.10;73.80
55711;DHT22;41612;51.994;5.880;2022-10-13T11:32:40;14.70;79.70
55711;DHT22;41612;51.994;5.880;2022-10-13T11:43:38;14.70;79.70
55711;DHT22;41612;51.994;5.880;2022-10-13T11:48:52;14.60;80.70
55711;DHT22;41612;51.994;5.880;2022-10-13T11:51:36;14.70;81.50
55711;DHT22;41612;51.994;5.880;2022-10-13T11:56:53;14.70;81.40
55711;DHT22;41612;51.994;5.880;2022-10-13T11:59:30;14.60;80.70
55711;DHT22;41612;51.994;5.880;2022-10-13T12:04:35;14.60;81.50
55711;DHT22;41612;51.994;5.880;2022-10-13T12:07:06;14.50;80.20
55711;DHT22;41612;51.994;5.880;2022-10-13T12:09:37;14.40;80.40
55711;DHT22;41612;51.994;5.880;2022-10-13T12:12:13;14.40;81.10
55711;DHT22;41612;51.994;5.880;2022-10-13T12:14:43;14.30;81.60
55711;DHT22;41612;51.994;5.880;2022-10-13T12:19:51;14.30;80.60
55711;DHT22;41612;51.994;5.880;2022-10-13T12:22:18;14.30;79.50
55711;DHT22;41612;51.994;5.880;2022-10-13T12:24:59;14.30;80.90
55711;DHT22;41612;51.994;5.880;2022-10-13T12:27:27;14.40;81.30
55711;DHT22;41612;51.994;5.880;2022-10-13T12:29:53;14.40;81.60
55711;DHT22;41612;51.994;5.880;2022-10-13T12:32:21;14.40;80.80
55711;DHT22;41612;51.994;5.880;2022-10-13T12:34:47;14.40;81.80
55711;DHT22;41612;51.994;5.880;2022-10-13T12:39:50;14.50;82.30
55711;DHT22;41612;51.994;5.880;2022-10-13T12:42:17;14.50;82.20
55711;DHT22;41612;51.994;5.880;2022-10-13T12:44:43;14.60;82.20
55711;DHT22;41612;51.994;5.880;2022-10-13T12:53:07;14.60;81.80
55711;DHT22;41612;51.994;5.880;2022-10-13T12:55:49;14.50;82.50
55711;DHT22;41612;51.994;5.880;2022-10-13T12:58:22;14.50;82.30
55711;DHT22;41612;51.994;5.880;2022-10-13T13:01:07;14.50;82.20
55711;DHT22;41612;51.994;5.880;2022-10-13T13:03:34;14.50;81.30
55711;DHT22;41612;51.994;5.880;2022-10-13T13:08:46;14.50;81.90
55711;DHT22;41612;51.994;5.880;2022-10-13T13:11:32;14.60;82.00
55711;DHT22;41612;51.994;5.880;2022-10-13T13:14:42;14.60;81.70
55711;DHT22;41612;51.994;5.880;2022-10-13T13:19:43;14.80;79.90
55711;DHT22;41612;51.994;5.880;2022-10-13T13:22:10;14.70;80.60
55711;DHT22;41612;51.994;5.880;2022-10-13T13:24:35;14.80;80.80
55711;DHT22;41612;51.994;5.880;2022-10-13T13:29:47;14.80;80.90
55711;DHT22;41612;51.994;5.880;2022-10-13T13:32:14;14.80;81.00
55711;DHT22;41612;51.994;5.880;2022-10-13T13:34:43;14.90;81.10
55711;DHT22;41612;51.994;5.880;2022-10-13T13:37:22;15.00;80.20
55711;DHT22;41612;51.994;5.880;2022-10-13T13:39:53;15.10;80.90
55711;DHT22;41612;51.994;5.880;2022-10-13T13:42:26;15.20;80.40
55711;DHT22;41612;51.994;5.880;2022-10-13T13:44:57;15.30;77.80
55711;DHT22;41612;51.994;5.880;2022-10-13T13:47:27;15.30;78.00
55711;DHT22;41612;51.994;5.880;2022-10-13T13:49:54;15.30;79.10
55711;DHT22;41612;51.994;5.880;2022-10-13T13:52:21;15.30;79.70
55711;DHT22;41612;51.994;5.880;2022-10-13T13:54:48;15.20;79.70
55711;DHT22;41612;51.994;5.880;2022-10-13T13:57:16;15.20;80.10
55711;DHT22;41612;51.994;5.880;2022-10-13T13:59:53;15.20;80.30
55711;DHT22;41612;51.994;5.880;2022-10-13T14:02:40;15.20;80.60
55711;DHT22;41612;51.994;5.880;2022-10-13T14:05:07;15.20;80.90
55711;DHT22;41612;51.994;5.880;2022-10-13T14:07:33;15.20;79.60
55711;DHT22;41612;51.994;5.880;2022-10-13T14:09:59;15.10;80.40
55711;DHT22;41612;51.994;5.880;2022-10-13T14:12:24;15.10;80.10
55711;DHT22;41612;51.994;5.880;2022-10-13T14:14:50;15.10;80.70
55711;DHT22;41612;51.994;5.880;2022-10-13T14:17:20;15.10;80.40
55711;DHT22;41612;51.994;5.880;2022-10-13T14:19:46;15.00;81.00
55711;DHT22;41612;51.994;5.880;2022-10-13T14:22:12;15.00;80.80
55711;DHT22;41612;51.994;5.880;2022-10-13T14:24:37;15.00;81.00
55711;DHT22;41612;51.994;5.880;2022-10-13T14:27:03;15.00;81.10
55711;DHT22;41612;51.994;5.880;2022-10-13T14:29:29;14.90;80.40
55711;DHT22;41612;51.994;5.880;2022-10-13T14:31:55;14.80;80.30
55711;DHT22;41612;51.994;5.880;2022-10-13T14:34:20;14.70;78.50
55711;DHT22;41612;51.994;5.880;2022-10-13T14:36:47;14.70;78.90
55711;DHT22;41612;51.994;5.880;2022-10-13T14:39:14;14.70;80.30
55711;DHT22;41612;51.994;5.880;2022-10-13T14:41:40;14.60;81.00
55711;DHT22;41612;51.994;5.880;2022-10-13T14:44:12;14.60;81.40
55711;DHT22;41612;51.994;5.880;2022-10-13T14:46:42;14.60;79.80
55711;DHT22;41612;51.994;5.880;2022-10-13T14:49:10;14.70;81.50
55711;DHT22;41612;51.994;5.880;2022-10-13T14:51:37;14.60;80.50
55711;DHT22;41612;51.994;5.880;2022-10-13T14:54:03;14.70;80.40
55711;DHT22;41612;51.994;5.880;2022-10-13T14:56:32;14.60;80.80
55711;DHT22;41612;51.994;5.880;2022-10-13T14:59:05;14.70;82.10
55711;DHT22;41612;51.994;5.880;2022-10-13T15:02:07;14.70;82.20
55711;DHT22;41612;51.994;5.880;2022-10-13T15:04:42;14.70;81.70
55711;DHT22;41612;51.994;5.880;2022-10-13T15:10:12;14.80;80.70
55711;DHT22;41612;51.994;5.880;2022-10-13T15:13:04;14.80;80.90
55711;DHT22;41612;51.994;5.880;2022-10-13T15:15:48;14.80;79.40
55711;DHT22;41612;51.994;5.880;2022-10-13T15:18:30;14.80;80.10
55711;DHT22;41612;51.994;5.880;2022-10-13T15:20:56;14.70;81.10
55711;DHT22;41612;51.994;5.880;2022-10-13T15:23:23;14.80;81.20
55711;DHT22;41612;51.994;5.880;2022-10-13T15:25:57;14.80;81.90
55711;DHT22;41612;51.994;5.880;2022-10-13T15:28:27;14.80;81.60
55711;DHT22;41612;51.994;5.880;2022-10-13T15:30:53;14.70;81.80
55711;DHT22;41612;51.994;5.880;2022-10-13T15:33:20;14.80;82.00
55711;DHT22;41612;51.994;5.880;2022-10-13T15:35:55;14.80;82.60
55711;DHT22;41612;51.994;5.880;2022-10-13T15:38:26;14.80;81.50
55711;DHT22;41612;51.994;5.880;2022-10-13T15:40:52;14.80;80.40
55711;DHT22;41612;51.994;5.880;2022-10-13T15:43:18;14.70;80.70
55711;DHT22;41612;51.994;5.880;2022-10-13T15:45:55;14.70;79.90
55711;DHT22;41612;51.994;5.880;2022-10-13T15:48:21;14.70;82.30
55711;DHT22;41612;51.994;5.880;2022-10-13T15:50:47;14.70;82.70
55711;DHT22;41612;51.994;5.880;2022-10-13T15:53:16;14.70;82.50
55711;DHT22;41612;51.994;5.880;2022-10-13T15:55:42;14.70;82.60
55711;DHT22;41612;51.994;5.880;2022-10-13T15:58:17;14.70;82.30
55711;DHT22;41612;51.994;5.880;2022-10-13T16:00:43;14.70;83.10
55711;DHT22;41612;51.994;5.880;2022-10-13T16:03:17;14.70;83.10
55711;DHT22;41612;51.994;5.880;2022-10-13T16:05:43;14.70;83.20
55711;DHT22;41612;51.994;5.880;2022-10-13T16:08:10;14.70;82.70
55711;DHT22;41612;51.994;5.880;2022-10-13T16:10:40;14.70;82.20
55711;DHT22;41612;51.994;5.880;2022-10-13T16:13:07;14.60;81.70
55711;DHT22;41612;51.994;5.880;2022-10-13T16:15:33;14.60;82.80
55711;DHT22;41612;51.994;5.880;2022-10-13T16:18:01;14.60;82.70
55711;DHT22;41612;51.994;5.880;2022-10-13T16:20:27;14.60;83.30
55711;DHT22;41612;51.994;5.880;2022-10-13T16:22:58;14.60;82.60
55711;DHT22;41612;51.994;5.880;2022-10-13T16:25:25;14.60;81.00
55711;DHT22;41612;51.994;5.880;2022-10-13T16:27:50;14.60;82.40
55711;DHT22;41612;51.994;5.880;2022-10-13T16:30:19;14.70;83.20
55711;DHT22;41612;51.994;5.880;2022-10-13T16:32:44;14.60;83.20
55711;DHT22;41612;51.994;5.880;2022-10-13T16:35:10;14.60;83.60
55711;DHT22;41612;51.994;5.880;2022-10-13T16:37:36;14.60;83.60
55711;DHT22;41612;51.994;5.880;2022-10-13T16:40:02;14.60;83.30
55711;DHT22;41612;51.994;5.880;2022-10-13T16:42:27;14.60;83.50
55711;DHT22;41612;51.994;5.880;2022-10-13T16:44:59;14.70;83.00
55711;DHT22;41612;51.994;5.880;2022-10-13T16:47:25;14.70;83.30
55711;DHT22;41612;51.994;5.880;2022-10-13T16:49:51;14.60;83.40
55711;DHT22;41612;51.994;5.880;2022-10-13T16:52:47;14.70;83.30
55711;DHT22;41612;51.994;5.880;2022-10-13T16:55:16;14.60;83.80
55711;DHT22;41612;51.994;5.880;2022-10-13T16:57:41;14.60;83.60
55711;DHT22;41612;51.994;5.880;2022-10-13T17:00:12;14.60;83.90
